TimeCDT,TemperatureF,Dew PointF,Humidity,Sea Level PressureIn,VisibilityMPH,Wind Direction,Wind SpeedMPH,Gust SpeedMPH,PrecipitationIn,Events,Conditions,WindDirDegrees,DateUTC
12:15 AM,72.7,58.1,60,29.95,10.0,ESE,11.5,-,N/A,,Clear,110,2012-10-13 05:15:00
12:35 AM,72.5,57.0,58,29.95,10.0,ESE,12.7,-,N/A,,Clear,120,2012-10-13 05:35:00
12:55 AM,72.7,55.9,56,29.95,10.0,SE,9.2,-,N/A,,Clear,130,2012-10-13 05:55:00
1:15 AM,74.1,55.8,53,29.95,10.0,South,6.9,-,N/A,,Scattered Clouds,180,2012-10-13 06:15:00
1:35 AM,76.5,54.7,47,29.95,10.0,South,17.3,23.0,N/A,,Scattered Clouds,180,2012-10-13 06:35:00
2:15 AM,73.6,55.6,53,29.93,10.0,South,11.5,17.3,N/A,Thunderstorm,Clear,170,2012-10-13 07:15:00
2:35 AM,71.8,56.3,58,29.93,10.0,SSW,8.1,-,N/A,,Clear,200,2012-10-13 07:35:00
2:55 AM,70.9,57.0,61,29.94,10.0,South,8.1,-,N/A,,Clear,180,2012-10-13 07:55:00
3:15 AM,71.8,56.8,59,29.95,10.0,South,11.5,-,N/A,,Clear,170,2012-10-13 08:15:00
3:35 AM,71.6,56.8,60,29.95,10.0,South,9.2,-,N/A,,Clear,170,2012-10-13 08:35:00
3:55 AM,71.6,56.7,59,29.95,10.0,South,6.9,-,N/A,,Clear,180,2012-10-13 08:55:00
5:35 AM,73.8,56.1,54,29.98,10.0,WSW,8.1,-,N/A,,Mostly Cloudy,240,2012-10-13 10:35:00
5:55 AM,73.8,56.3,54,29.98,10.0,SW,8.1,-,N/A,,Mostly Cloudy,230,2012-10-13 10:55:00
6:15 AM,73.9,56.1,54,29.98,10.0,SSW,5.8,-,N/A,,Scattered Clouds,210,2012-10-13 11:15:00
6:35 AM,72.9,56.3,56,29.98,10.0,SSW,5.8,-,N/A,,Scattered Clouds,200,2012-10-13 11:35:00
7:15 AM,70.3,56.3,61,29.98,10.0,Calm,Calm,-,N/A,,Clear,0,2012-10-13 12:15:00
7:55 AM,68.0,56.5,67,29.99,10.0,Calm,Calm,-,N/A,,Clear,0,2012-10-13 12:55:00
8:15 AM,65.1,56.3,73,29.99,10.0,WNW,3.5,-,N/A,,Clear,300,2012-10-13 13:15:00
8:55 AM,67.8,57.6,70,30.00,10.0,North,5.8,-,N/A,,Clear,350,2012-10-13 13:55:00
9:15 AM,69.6,57.7,66,30.00,10.0,North,4.6,-,N/A,,Clear,350,2012-10-13 14:15:00
9:35 AM,71.1,58.5,64,30.01,10.0,North,3.5,-,N/A,,Clear,10,2012-10-13 14:35:00
9:55 AM,73.4,59.2,61,30.02,10.0,West,5.8,-,N/A,,Clear,280,2012-10-13 14:55:00
10:15 AM,76.5,59.0,55,30.02,10.0,West,10.4,16.1,N/A,,Clear,260,2012-10-13 15:15:00
11:35 AM,79.9,35.4,20,30.03,10.0,West,15.0,20.7,N/A,,Clear,280,2012-10-13 16:35:00
11:55 AM,80.6,33.6,18,30.02,10.0,West,16.1,20.7,N/A,,Clear,270,2012-10-13 16:55:00
12:15 PM,80.8,35.2,19,30.02,10.0,West,16.1,21.9,N/A,,Clear,260,2012-10-13 17:15:00
12:35 PM,81.5,35.4,19,30.01,10.0,WSW,12.7,18.4,N/A,,Clear,250,2012-10-13 17:35:00
12:55 PM,82.9,37.9,20,30.00,10.0,WSW,12.7,17.3,N/A,,Clear,240,2012-10-13 17:55:00
1:15 PM,83.7,37.6,19,29.99,10.0,WSW,18.4,24.2,N/A,,Clear,250,2012-10-13 18:15:00
1:35 PM,84.4,36.7,18,29.98,10.0,West,16.1,23.0,N/A,,Clear,260,2012-10-13 18:35:00
2:15 PM,86.4,34.3,16,29.95,10.0,WSW,20.7,26.5,N/A,,Clear,240,2012-10-13 19:15:00
2:35 PM,86.9,33.6,15,29.95,10.0,WSW,17.3,29.9,N/A,,Clear,250,2012-10-13 19:35:00
2:55 PM,87.6,33.1,14,29.94,10.0,SW,21.9,29.9,N/A,,Clear,230,2012-10-13 19:55:00
3:15 PM,87.4,32.2,14,29.93,7.0,SW,19.6,32.2,N/A,,Clear,230,2012-10-13 20:15:00
3:35 PM,87.4,31.8,14,29.93,10.0,WSW,23.0,28.8,N/A,,Clear,250,2012-10-13 20:35:00
3:55 PM,87.3,28.4,12,29.93,10.0,WSW,21.9,28.8,N/A,,Clear,240,2012-10-13 20:55:00
4:15 PM,86.9,29.5,13,29.93,10.0,WSW,18.4,28.8,N/A,,Clear,240,2012-10-13 21:15:00
4:55 PM,86.4,29.8,13,29.93,10.0,WSW,18.4,25.3,N/A,,Clear,240,2012-10-13 21:55:00
5:35 PM,85.6,28.2,13,29.92,10.0,West,17.3,24.2,N/A,,Clear,260,2012-10-13 22:35:00
5:55 PM,85.3,28.8,13,29.91,10.0,WSW,15.0,23.0,N/A,,Clear,240,2012-10-13 22:55:00
6:15 PM,84.4,27.9,13,29.92,10.0,West,18.4,24.2,N/A,,Clear,260,2012-10-13 23:15:00
6:35 PM,83.3,26.4,13,29.93,10.0,West,15.0,24.2,N/A,,Clear,260,2012-10-13 23:35:00
6:55 PM,81.7,26.2,13,29.93,10.0,West,16.1,19.6,N/A,,Clear,260,2012-10-13 23:55:00
7:15 PM,78.6,26.6,15,29.94,10.0,West,9.2,-,N/A,,Clear,270,2012-10-14 00:15:00
7:35 PM,75.0,28.0,18,29.95,10.0,West,9.2,-,N/A,,Clear,270,2012-10-14 00:35:00
9:55 PM,71.2,22.8,16,30.00,10.0,West,11.5,-,N/A,,Clear,270,2012-10-14 02:55:00
10:15 PM,68.0,24.3,19,30.01,10.0,West,8.1,-,N/A,,Clear,260,2012-10-14 03:15:00
10:55 PM,64.8,25.5,23,30.04,10.0,WSW,5.8,-,N/A,,Clear,250,2012-10-14 03:55:00
11:35 PM,63.1,26.2,25,30.05,10.0,NW,3.5,-,N/A,,Clear,320,2012-10-14 04:35:00